Tiempo atmosférico en la estación meteorológica de Hijar, Teruel (300 m.)



Fecha
DESCASC
Temp. máxima en grados centígrados (hora)
DESCASC
Temp. mínima en grados centígrados (hora)
DESCASC
Temp. media en grados centígrados
DESCASC
Racha de viento máxima en m/sg (hora)
DESCASC
Velocidad máxima media en intervalos de 10 minutos(hora)
DESCASC
Precipitaciones diarias en mm
DESCASC
Precipitaciones de 00:00 a 06:00 en mm
DESCASC
Precipitaciones de 06:00 a 12:00 en mm
DESCASC
Precipitaciones de 12:00 a 18:00 en mm
DESCASC
Precipitaciones de 18:00 a 24:00 en mm
DESCASC
22-04-2019 17.2 (16:20) 10.2 (10:40) 13.7 5.83 (23:00) 4.17 (23:00) 0.8 0 0.8 0 0
21-04-2019 13.4 (13:50) 8.6 (07:20) 11 4.17 (20:10) 2.78 (21:40) 3.4 3.2 0 0.2 0
20-04-2019 19.4 (15:40) 9.3 (07:40) 14.3 12.5 (17:30) 8.06 (17:20) 3.2 0 0 0 3.2
19-04-2019 20.3 (16:30) 11.6 (06:00) 15.9 17.22 (15:40) 11.39 (13:30) 4.2 4 0.2 0 0
18-04-2019 20.2 (16:20) 10.7 (00:00) 15.5 20 (16:10) 14.17 (16:10) 0 0 0 0 0
17-04-2019 21.9 (15:30) 8.5 (00:00) 15.2 13.33 (18:10) 9.72 (16:20) 0 0 0 0 0
16-04-2019 23.3 (15:00) 8.4 (00:00) 15.8 9.72 (20:50) 6.94 (20:30) 0 0 0 0 0
15-04-2019 23.2 (18:10) 10.6 (00:00) 16.9 13.61 (16:40) 10 (16:20) 0 0 0 0 0
14-04-2019 27.5 (16:40) 9.1 (00:00) 18.3 8.89 (14:50) 5.28 (09:40) 0 0 0 0 0
13-04-2019 24.8 (16:40) 5.1 (00:00) 14.9 6.67 (00:30) 5 (23:50) 0 0 0 0 0
12-04-2019 21.6 (17:00) 7.4 (00:00) 14.5 11.67 (00:50) 6.67 (01:00) 0 0 0 0 0
11-04-2019 18 (15:50) 7.6 (00:00) 12.8 14.17 (18:30) 6.39 (08:40) 0 0 0 0 0
10-04-2019 18.8 (17:20) 8.1 (00:00) 13.4 11.39 (13:30) 6.11 (23:30) 0 0 0 0 0
09-04-2019 20.3 (15:30) 9.2 (00:00) 14.7 15.28 (19:40) 10 (19:50) 0 0 0 0 0
08-04-2019 20.2 (16:50) 8.7 (00:00) 14.5 10.28 (19:20) 6.39 (19:20) 2.8 1.8 0.8 0.2 0
07-04-2019 18 (16:20) 7.1 (00:00) 12.5 12.22 (15:20) 7.5 (14:50) 0 0 0 0 0
06-04-2019 16.9 (17:40) 5.4 (00:00) 11.1 13.61 (18:40) 8.61 (18:50) 0.4 0.2 0 0 0.2
05-04-2019 17.1 (13:30) 5.4 (00:00) 11.3 12.78 (22:50) 7.5 (22:50) 3.4 0 0 1.4 2
04-04-2019 16.2 (16:20) 0.9 (00:00) 8.6 8.06 (11:40) 4.72 (19:20) 0.2 0.2 0 0 0
03-04-2019 14 (12:40) 5.7 (21:30) 9.8 11.39 (20:20) 5.28 (00:30) 1.6 0 0 1.6 0
02-04-2019 21 (15:50) 8.5 (00:00) 14.8 7.5 (22:10) 5.28 (22:10) 0 0 0 0 0
01-04-2019 16.3 (18:30) 8.6 (00:00) 12.4 5 (15:20) 3.33 (15:00) 6.4 2.2 3.8 0.4 0
31-03-2019 11.7 (16:10) 3.4 (00:00) 7.5 3.33 (07:40) 2.78 (07:40) 7 0 0 0.4 6.6
30-03-2019 18.9 (16:00) 1.9 (00:00) 10.4 9.44 (16:20) 5.56 (18:10) 0 0 0 0 0
29-03-2019 20.3 (16:10) 3.5 (00:00) 11.9 13.61 (17:50) 8.61 (17:50) 0 0 0 0 0
28-03-2019 21.4 (17:20) 4.6 (00:00) 13 7.22 (11:10) 3.61 (04:00) 0 0 0 0 0
27-03-2019 21.7 (15:30) 3.9 (00:00) 12.8 7.22 (09:20) 3.89 (05:30) 0 0 0 0 0
26-03-2019 21.6 (16:40) 5.6 (00:00) 13.6 9.17 (00:10) 5 (00:10) 0 0 0 0 0
25-03-2019 20.8 (14:30) 8.7 (00:00) 14.7 13.33 (22:40) 6.11 (21:50) 0 0 0 0 0

Gráficas

Temp. máximas Temp. mínimas Temp. medias Precipitaciones Rachas de viento máximas Velocidades máximas media en intervalos de 10 minutos

Datos horarios

Fecha y hora oficial Temperatura (ºC) Velocidad del viento (km/h) Dirección del viento Racha (km/h) Dirección de racha Precipitación (mm) Presión (hPa) Tendencia (hPa) Humedad (%)
2019-04-23 23:00:00 12.2 8 Oeste 24 Oeste 0 -- -- 55
2019-04-23 22:00:00 13.5 6 Sudoeste 18 Oeste 0 -- -- 60
2019-04-23 21:00:00 14.7 9 Oeste 40 Sudoeste 0 -- -- 56
2019-04-23 20:00:00 15.5 10 Sudoeste 35 Oeste 0 -- -- 55
2019-04-23 19:00:00 16 5 Sur 32 Sudoeste 0 -- -- 54
2019-04-23 18:00:00 16.2 11 Sudoeste 27 Sudoeste 0 -- -- 53
2019-04-23 17:00:00 15.1 19 Sudoeste 40 Sudoeste 0.4 -- -- 63
2019-04-23 16:00:00 18.4 13 Oeste 30 Oeste 0 -- -- 54
2019-04-23 15:00:00 20.4 6 Oeste 18 Sudoeste 0 -- -- 50
2019-04-23 14:00:00 18.7 13 Sudoeste 21 Este 0 -- -- 51
2019-04-23 13:00:00 18.4 8 Nordeste 27 Este 0 -- -- 59
2019-04-23 12:00:00 17.1 11 Nordeste 16 Este 0 -- -- 73
2019-04-23 11:00:00 13.8 8 Este 13 Este 0 -- -- 81
2019-04-23 10:00:00 12.7 6 Nordeste 9 Nordeste 0 -- -- 84
2019-04-23 09:00:00 10.8 2 Sudoeste 6 Sudoeste 0 -- -- 89
2019-04-23 08:00:00 8.5 3 Sudoeste 9 Sudoeste 0 -- -- 94
2019-04-23 07:00:00 7.8 4 Sudoeste 6 Sudoeste 0 -- -- 93
2019-04-23 06:00:00 8.5 0 Calma 8 Sudoeste 0 -- -- 90
2019-04-23 05:00:00 9 2 Sudoeste 5 Sudoeste 0 -- -- 90
2019-04-23 04:00:00 10 0 Calma 9 Este 0 -- -- 88
2019-04-23 03:00:00 11.2 4 Nordeste 10 Nordeste 0 -- -- 86
2019-04-23 02:00:00 12.4 5 Sur 14 Sudeste 0 -- -- 76
2019-04-23 01:00:00 12.8 8 Sudeste 20 Sudeste 0 -- -- 76
2019-04-23 00:00:00 12.7 15 Sur 21 Sudeste 0 -- -- 79
2019-04-22 23:00:00 13 15 Sudeste 21 Sudeste 0 -- -- 77
2019-04-22 22:00:00 13.9 8 Sudeste 15 Sur 0 -- -- 70
2019-04-22 21:00:00 14.5 8 Sudeste 15 Sudeste 0 -- -- 70
2019-04-22 20:00:00 15 2 Sur 8 Este 0 -- -- 66
2019-04-22 19:00:00 15.6 3 Este 6 Sudoeste 0 -- -- 62
2019-04-22 18:00:00 15.7 2 Este 4 Este 0 -- -- 59
2019-04-22 17:00:00 16.5 2 Oeste 10 Oeste 0 -- -- 55
2019-04-22 16:00:00 16.6 4 Oeste 12 Oeste 0 -- -- 55
2019-04-22 15:00:00 16 6 Oeste 15 Oeste 0 -- -- 59
2019-04-22 14:00:00 15.3 9 Oeste 17 Oeste 0 -- -- 65
2019-04-22 13:00:00 13.2 6 Oeste 17 Sudoeste 0 -- -- 82
2019-04-22 12:00:00 11.3 12 Sudoeste 19 Sudoeste 0 -- -- 88
2019-04-22 11:00:00 10.2 12 Sudoeste 18 Sudoeste 0.2 -- -- 93
2019-04-22 10:00:00 10.6 4 Oeste 7 Sudoeste 0.6 -- -- 90
2019-04-22 09:00:00 10.5 0 Calma 15 Nordeste 0 -- -- 86
2019-04-22 08:00:00 11.1 4 Nordeste 12 Sudoeste 0 -- -- 79
2019-04-22 07:00:00 11.1 6 Sudoeste 11 Oeste 0 -- -- 76
2019-04-22 06:00:00 11.2 5 Sudoeste 10 Oeste 0 -- -- 77
2019-04-22 05:00:00 11.2 5 Sudoeste 11 Oeste 0 -- -- 79
2019-04-22 04:00:00 11.2 6 Oeste 10 Sudoeste 0 -- -- 79
2019-04-22 03:00:00 11.4 8 Sudoeste 11 Sudoeste 0 -- -- 79
2019-04-22 02:00:00 11.5 7 Oeste 11 Oeste 0 -- -- 80
2019-04-22 01:00:00 11.6 6 Sudoeste 10 Sudoeste 0 -- -- 79
2019-04-22 00:00:00 11.7 6 Sudoeste 11 Sudoeste 0 -- -- 79
2019-04-21 23:00:00 11.9 7 Oeste 12 Sudoeste 0 -- -- 78
2019-04-21 22:00:00 12 8 Sudoeste 13 Oeste 0 -- -- 79
2019-04-21 21:00:00 12 7 Sudoeste 15 Oeste 0 -- -- 82
2019-04-21 20:00:00 12.4 8 Oeste 14 Oeste 0 -- -- 83
2019-04-21 19:00:00 12.6 5 Oeste 9 Oeste 0 -- -- 84
2019-04-21 18:00:00 12.9 4 Noroeste 13 Oeste 0.2 -- -- 82
2019-04-21 17:00:00 13.1 3 Noroeste 10 Noroeste 0 -- -- 76
2019-04-21 16:00:00 12.8 4 Sudoeste 10 Noroeste 0 -- -- 76
2019-04-21 15:00:00 12.8 4 Noroeste 13 Oeste 0 -- -- 80
2019-04-21 14:00:00 13.3 4 Noroeste 12 Noroeste 0 -- -- 78
2019-04-21 13:00:00 12.2 4 Noroeste 13 Noroeste 0 -- -- 84
2019-04-21 12:00:00 11 4 Noroeste 11 Noroeste 0 -- -- 92
2019-04-21 11:00:00 10.3 2 Noroeste 10 Oeste 0 -- -- 93
2019-04-21 10:00:00 9.8 5 Oeste 10 Oeste 0 -- -- 94
2019-04-21 09:00:00 9.4 5 Oeste 14 Noroeste 0 -- -- 95
2019-04-21 08:00:00 8.8 7 Noroeste 14 Noroeste 0 -- -- 95
2019-04-21 07:00:00 8.7 6 Oeste 12 Oeste 0 -- -- 95
2019-04-21 06:00:00 8.9 6 Oeste 11 Oeste 0 -- -- 93
2019-04-21 05:00:00 9.1 4 Noroeste 8 Oeste 0.6 -- -- 93
2019-04-21 04:00:00 9.1 4 Oeste 9 Noroeste 0.2 -- -- 93
2019-04-21 03:00:00 9.3 3 Noroeste 7 Noroeste 0 -- -- 93
2019-04-21 02:00:00 9.4 0 Calma 5 Noroeste 0.4 -- -- 93
2019-04-21 01:00:00 9.5 0 Calma 6 Nordeste 2 -- -- 92
2019-04-21 00:00:00 9.4 4 Nordeste 23 Este 2.4 -- -- 90
2019-04-20 23:00:00 9.8 13 Sudeste 28 Sudeste 0.4 -- -- 83
2019-04-20 22:00:00 11.1 15 Este 37 Sudeste 0 -- -- 81
2019-04-20 21:00:00 11.1 22 Sudeste 41 Sudeste 0.2 -- -- 80
2019-04-20 20:00:00 11.8 19 Sudeste 36 Sudeste 0 -- -- 77
2019-04-20 19:00:00 12.2 20 Sur 34 Sur 0.2 -- -- 76
2019-04-20 18:00:00 16 24 Sudeste 45 Este 0 -- -- 52
2019-04-20 17:00:00 18.3 25 Este 40 Este 0 -- -- 35
2019-04-20 16:00:00 19.4 23 Este 40 Este 0 -- -- 34
2019-04-20 15:00:00 18.9 18 Nordeste 34 Nordeste 0 -- -- 38
2019-04-20 14:00:00 18.9 17 Nordeste 33 Este 0 -- -- 38
2019-04-20 13:00:00 18.2 20 Este 35 Este 0 -- -- 40
2019-04-20 12:00:00 17.3 9 Nordeste 27 Nordeste 0 -- -- 45
2019-04-20 11:00:00 17.2 5 Nordeste 13 Nordeste 0 -- -- 45
2019-04-20 10:00:00 13.7 3 Oeste 10 Sudoeste 0 -- -- 66
2019-04-20 09:00:00 10.8 6 Sudoeste 13 Sudoeste 0 -- -- 76
2019-04-20 08:00:00 9.3 8 Sudoeste 13 Sudoeste 0 -- -- 81
2019-04-20 07:00:00 9.6 8 Sudoeste 10 Sudoeste 0 -- -- 77
2019-04-20 06:00:00 9.7 3 Oeste 10 Sudoeste 0 -- -- 80
2019-04-20 05:00:00 10.1 7 Sudoeste 10 Sudoeste 0 -- -- 79
2019-04-20 04:00:00 10.3 6 Sudoeste 13 Sudoeste 0 -- -- 76
2019-04-20 03:00:00 10.7 6 Sudoeste 9 Sudoeste 0 -- -- 74
2019-04-20 02:00:00 11.3 3 Oeste 9 Noroeste 0 -- -- 71
2019-04-20 01:00:00 11.8 6 Sudoeste 12 Sudoeste 0 -- -- 67
2019-04-20 00:00:00 13.2 6 Sudoeste 9 Sudoeste 0 -- -- 62
2019-04-19 23:00:00 14.2 7 Sur 11 Sudeste 0 -- -- 57
2019-04-19 22:00:00 15 8 Sudeste 20 Este 0 -- -- 54
2019-04-19 21:00:00 16.4 21 Este 47 Sudeste 0 -- -- 47
2019-04-19 20:00:00 17.6 28 Este 50 Sudeste 0 -- -- 44
2019-04-19 19:00:00 18.6 27 Sudeste 51 Este 0 -- -- 42
2019-04-19 18:00:00 19.4 31 Sudeste 52 Sudeste 0 -- -- 40
2019-04-19 17:00:00 19.7 34 Este 53 Este 0 -- -- 37
2019-04-19 16:00:00 19.3 36 Sudeste 62 Este 0 -- -- 41
2019-04-19 15:00:00 19.2 33 Este 62 Este 0 -- -- 42
2019-04-19 14:00:00 18.4 34 Este 54 Sudeste 0 -- -- 49
2019-04-19 13:00:00 18.1 32 Este 51 Este 0 -- -- 53
2019-04-19 12:00:00 15.6 12 Sur 21 Sudeste 0 -- -- 67
2019-04-19 11:00:00 13.8 7 Sudeste 31 Este 0 -- -- 76
2019-04-19 10:00:00 13.6 21 Este 35 Este 0 -- -- 74
2019-04-19 09:00:00 13 14 Este 32 Este 0 -- -- 81
2019-04-19 08:00:00 12.8 19 Este 28 Este 0.2 -- -- 81
2019-04-19 07:00:00 11.9 3 Sudoeste 4 Sudoeste 0 -- -- 93
2019-04-19 06:00:00 11.6 4 Sudoeste 6 Sudoeste 0 -- -- 93
2019-04-19 05:00:00 11.8 2 Sudoeste 4 Sudoeste 0 -- -- 92
2019-04-19 04:00:00 11.7 3 Nordeste 24 Este 3.2 -- -- 90
2019-04-19 03:00:00 12.4 14 Sudeste 40 Este 0.4 -- -- 84
2019-04-19 02:00:00 13 25 Este 46 Sudeste 0 -- -- 75
2019-04-19 01:00:00 13.4 26 Este 42 Este 0.4 -- -- 75
2019-04-19 00:00:00 14.8 27 Este 41 Este 0 -- -- 63
2019-04-18 23:00:00 15 22 Este 38 Este 0 -- -- 53
2019-04-18 22:00:00 15.2 25 Este 68 Este 0 -- -- 53
2019-04-18 21:00:00 15.9 36 Este 66 Sudeste 0 -- -- 50
2019-04-18 20:00:00 16.3 31 Sudeste 51 Este 0 -- -- 49
2019-04-18 19:00:00 16.9 41 Sudeste 64 Este 0 -- -- 46
2019-04-18 18:00:00 18.3 38 Este 64 Este 0 -- -- 44
2019-04-18 17:00:00 19.1 48 Este 72 Este 0 -- -- 41
2019-04-18 16:00:00 19.8 46 Este 61 Este 0 -- -- 38
2019-04-18 15:00:00 19.7 35 Este 51 Este 0 -- -- 42
2019-04-18 14:00:00 16.8 18 Este 34 Nordeste 0 -- -- 55
2019-04-18 13:00:00 15.4 20 Este 39 Este 0 -- -- 59
2019-04-18 12:00:00 13.7 20 Este 31 Este 0 -- -- 64
2019-04-18 11:00:00 12.9 15 Nordeste 24 Este 0 -- -- 75
2019-04-18 10:00:00 11.7 15 Este 38 Nordeste 0 -- -- 82
2019-04-18 09:00:00 11.5 12 Nordeste 20 Este 0 -- -- 82
2019-04-18 08:00:00 11.1 12 Este 21 Este 0 -- -- 84
2019-04-18 07:00:00 10.9 3 Sudeste 22 Este 0 -- -- 85
2019-04-18 06:00:00 11 6 Este 13 Este 0 -- -- 81
2019-04-18 05:00:00 11 8 Nordeste 20 Este 0 -- -- 78
2019-04-18 04:00:00 11.1 16 Este 19 Este 0 -- -- 73
2019-04-18 03:00:00 11.6 10 Este 18 Este 0 -- -- 76
2019-04-18 02:00:00 12 11 Este 31 Este 0 -- -- 77
2019-04-18 01:00:00 12.5 24 Este 35 Este 0 -- -- 76
2019-04-18 00:00:00 13.3 10 Este 21 Este 0 -- -- 70
2019-04-17 23:00:00 13.5 11 Este 29 Este 0 -- -- 72
2019-04-17 22:00:00 14.1 15 Este 24 Este 0 -- -- 70
2019-04-17 21:00:00 14.9 14 Nordeste 31 Nordeste 0 -- -- 68
2019-04-17 20:00:00 16.8 19 Este 38 Este 0 -- -- 62
2019-04-17 19:00:00 18.1 27 Este 48 Este 0 -- -- 58
2019-04-17 18:00:00 19.4 26 Este 43 Este 0 -- -- 54
2019-04-17 17:00:00 20.2 28 Nordeste 43 Nordeste 0 -- -- 50
2019-04-17 16:00:00 21.2 29 Nordeste 44 Este 0 -- -- 47
2019-04-17 15:00:00 21.8 19 Nordeste 36 Nordeste 0 -- -- 48
2019-04-17 14:00:00 20 19 Nordeste 36 Nordeste 0 -- -- 50
2019-04-17 13:00:00 19.6 14 Este 29 Nordeste 0 -- -- 51
2019-04-17 12:00:00 17 14 Nordeste 25 Norte 0 -- -- 59
2019-04-17 11:00:00 15.3 5 Este 12 Este 0 -- -- 66
2019-04-17 10:00:00 13.4 5 Este 15 Este 0 -- -- 72
2019-04-17 09:00:00 11.2 0 Calma 5 Noroeste 0 -- -- 77
2019-04-17 08:00:00 8.7 2 Este 6 Sudoeste 0 -- -- 79
2019-04-17 07:00:00 9.3 2 Sur 13 Este 0 -- -- 77
2019-04-17 06:00:00 10.1 9 Nordeste 26 Este 0 -- -- 72
2019-04-17 05:00:00 10.9 8 Este 29 Sudeste 0 -- -- 66
2019-04-17 04:00:00 11.4 19 Sudeste 27 Sudeste 0 -- -- 61
2019-04-17 03:00:00 12.1 16 Sudeste 27 Este 0 -- -- 62
2019-04-17 02:00:00 12.1 20 Este 28 Sudeste 0 -- -- 70
2019-04-17 01:00:00 11.2 15 Nordeste 17 Nordeste 0 -- -- 73
2019-04-17 00:00:00 12.3 9 Este 16 Este 0 -- -- 70
2019-04-16 23:00:00 14 12 Este 25 Este 0 -- -- 64
2019-04-16 22:00:00 15.7 18 Sudeste 34 Este 0 -- -- 60
2019-04-16 21:00:00 17 19 Sudeste 35 Sudeste 0 -- -- 57
2019-04-16 20:00:00 19.5 21 Nordeste 33 Nordeste 0 -- -- 42
2019-04-16 19:00:00 20.8 16 Este 25 Nordeste 0 -- -- 37
2019-04-16 18:00:00 21.4 10 Este 24 Nordeste 0 -- -- 37
2019-04-16 17:00:00 22 9 Este 20 Nordeste 0 -- -- 36
2019-04-16 16:00:00 21.8 6 Norte 18 Este 0 -- -- 37
2019-04-16 15:00:00 23.3 5 Noroeste 14 Norte 0 -- -- 36
2019-04-16 14:00:00 22.2 9 Oeste 19 Oeste 0 -- -- 39
2019-04-16 13:00:00 20 6 Norte 19 Oeste 0 -- -- 44
2019-04-16 12:00:00 19.3 6 Noroeste 20 Noroeste 0 -- -- 48
2019-04-16 11:00:00 16.7 8 Noroeste 23 Oeste 0 -- -- 56
2019-04-16 10:00:00 13.9 13 Oeste 24 Noroeste 0 -- -- 67
2019-04-16 09:00:00 11.2 9 Sudoeste 14 Oeste 0 -- -- 81
2019-04-16 08:00:00 9.5 5 Oeste 15 Sudoeste 0 -- -- 85
2019-04-16 07:00:00 8.4 11 Sudoeste 15 Sudoeste 0 -- -- 85
2019-04-16 06:00:00 8.8 8 Sudoeste 10 Sudoeste 0 -- -- 82
2019-04-16 05:00:00 10.2 3 Noroeste 15 Oeste 0 -- -- 76
2019-04-16 04:00:00 10.6 10 Oeste 18 Oeste 0 -- -- 77
2019-04-16 03:00:00 10.7 6 Noroeste 13 Oeste 0 -- -- 79
2019-04-16 02:00:00 10.8 3 Noroeste 13 Oeste 0 -- -- 80
2019-04-16 01:00:00 11.2 4 Noroeste 15 Noroeste 0 -- -- 78
2019-04-16 00:00:00 11.3 4 Noroeste 16 Norte 0 -- -- 79
2019-04-15 23:00:00 12.8 6 Noroeste 20 Noroeste 0 -- -- 73
2019-04-15 22:00:00 13.6 12 Nordeste 32 Este 0 -- -- 68
2019-04-15 21:00:00 14.3 19 Este 41 Nordeste 0 -- -- 64
2019-04-15 20:00:00 19.4 17 Este 38 Este 0 -- -- 46
2019-04-15 19:00:00 20.3 23 Este 48 Este 0 -- -- 47
2019-04-15 18:00:00 23 27 Este 46 Nordeste 0 -- -- 38
2019-04-15 17:00:00 21.1 31 Nordeste 49 Este 0 -- -- 49
2019-04-15 16:00:00 22 28 Este 48 Nordeste 0 -- -- 47
2019-04-15 15:00:00 21.8 31 Nordeste 46 Nordeste 0 -- -- 48
2019-04-15 14:00:00 21.4 28 Nordeste 42 Nordeste 0 -- -- 48
2019-04-15 13:00:00 20.4 25 Nordeste 41 Nordeste 0 -- -- 48
2019-04-15 12:00:00 19.8 14 Nordeste 23 Nordeste 0 -- -- 50
2019-04-15 11:00:00 17.2 8 Nordeste 15 Nordeste 0 -- -- 62
2019-04-15 10:00:00 14.9 6 Nordeste 13 Nordeste 0 -- -- 72
2019-04-15 09:00:00 13.1 2 Nordeste 8 Norte 0 -- -- 76
2019-04-15 08:00:00 10.9 0 Calma 8 Este 0 -- -- 81
2019-04-15 07:00:00 11.6 0 Calma 16 Nordeste 0 -- -- 76
2019-04-15 06:00:00 12.7 10 Este 14 Este 0 -- -- 75
2019-04-15 05:00:00 13.6 6 Sudoeste 19 Sudoeste 0 -- -- 70
2019-04-15 04:00:00 14.6 11 Sudoeste 18 Sudoeste 0 -- -- 68
2019-04-15 03:00:00 15.5 8 Sudoeste 19 Sudoeste 0 -- -- 65
2019-04-15 02:00:00 16.6 14 Sudoeste 24 Sudoeste 0 -- -- 61
2019-04-15 01:00:00 17.4 13 Sudoeste 22 Oeste 0 -- -- 59
2019-04-15 00:00:00 17.8 15 Sudoeste 24 Oeste 0 -- -- 58
2019-04-14 23:00:00 18.4 15 Oeste 23 Oeste 0 -- -- 55
2019-04-14 22:00:00 19.2 12 Oeste 17 Oeste 0 -- -- 51
2019-04-14 21:00:00 20.8 5 Noroeste 24 Noroeste 0 -- -- 47
2019-04-14 20:00:00 22.9 7 Noroeste 31 Noroeste 0 -- -- 40
2019-04-14 19:00:00 24.6 9 Noroeste 28 Norte 0 -- -- 37
2019-04-14 18:00:00 26.6 9 Noroeste 27 Noroeste 0 -- -- 33
2019-04-14 17:00:00 27.2 7 Norte 27 Norte 0 -- -- 30
2019-04-14 16:00:00 26.9 7 Noroeste 27 Norte 0 -- -- 30
2019-04-14 15:00:00 26.6 12 Noroeste 32 Noroeste 0 -- -- 30
2019-04-14 14:00:00 25 10 Noroeste 32 Noroeste 0 -- -- 32
2019-04-14 13:00:00 23.9 9 Noroeste 28 Noroeste 0 -- -- 32
2019-04-14 12:00:00 22.5 9 Noroeste 28 Oeste 0 -- -- 34
2019-04-14 11:00:00 20.6 8 Noroeste 31 Oeste 0 -- -- 36
2019-04-14 10:00:00 18.9 17 Oeste 32 Oeste 0 -- -- 38
2019-04-14 09:00:00 14.5 13 Sudoeste 27 Sudoeste 0 -- -- 39
2019-04-14 08:00:00 11.3 16 Sudoeste 21 Sudoeste 0 -- -- 39
2019-04-14 07:00:00 10.2 16 Sudoeste 23 Sudoeste 0 -- -- 38
2019-04-14 06:00:00 10.9 15 Sudoeste 22 Sudoeste 0 -- -- 35
2019-04-14 05:00:00 10.4 16 Sudoeste 20 Sudoeste 0 -- -- 34
2019-04-14 04:00:00 9.1 10 Oeste 17 Sudoeste 0 -- -- 34
2019-04-14 03:00:00 10.4 0 Calma 22 Sudoeste 0 -- -- 31
2019-04-14 02:00:00 11.8 17 Sudoeste 22 Sudoeste 0 -- -- 28
2019-04-14 01:00:00 11.2 16 Sudoeste 21 Sudoeste 0 -- -- 29
2019-04-14 00:00:00 11.8 17 Sudoeste 22 Sudoeste 0 -- -- 27
2019-04-13 23:00:00 12.8 15 Sudoeste 20 Sudoeste 0 -- -- 27
2019-04-13 22:00:00 13.7 8 Sudoeste 14 Sudoeste 0 -- -- 25
2019-04-13 21:00:00 17.7 4 Sudoeste 5 Oeste 0 -- -- 16
2019-04-13 20:00:00 20.7 3 Noroeste 15 Oeste 0 -- -- 16
2019-04-13 19:00:00 22.8 7 Noroeste 19 Norte 0 -- -- 15
2019-04-13 18:00:00 24.3 8 Noroeste 19 Norte 0 -- -- 14
2019-04-13 17:00:00 24.3 6 Noroeste 20 Norte 0 -- -- 16
2019-04-13 16:00:00 24.1 8 Noroeste 21 Noroeste 0 -- -- 16
2019-04-13 15:00:00 22.5 5 Noroeste 18 Noroeste 0 -- -- 21
2019-04-13 14:00:00 20.4 7 Noroeste 17 Norte 0 -- -- 24
2019-04-13 13:00:00 19.6 8 Norte 18 Noroeste 0 -- -- 27
2019-04-13 12:00:00 17.8 6 Noroeste 19 Norte 0 -- -- 30
2019-04-13 11:00:00 15.7 5 Noroeste 15 Norte 0 -- -- 35
2019-04-13 10:00:00 12.8 4 Oeste 13 Oeste 0 -- -- 44
2019-04-13 09:00:00 8 9 Sudoeste 15 Sudoeste 0 -- -- 59
2019-04-13 08:00:00 5.4 12 Sudoeste 17 Sudoeste 0 -- -- 67
2019-04-13 07:00:00 6.6 10 Sudoeste 15 Sudoeste 0 -- -- 60
2019-04-13 06:00:00 6.3 11 Sudoeste 15 Oeste 0 -- -- 63
2019-04-13 05:00:00 7.8 8 Sudoeste 15 Sudoeste 0 -- -- 56
2019-04-13 04:00:00 8.2 10 Sudoeste 17 Sudoeste 0 -- -- 56
2019-04-13 03:00:00 9.1 13 Sudoeste 17 Sudoeste 0 -- -- 55
2019-04-13 02:00:00 9.2 8 Sudoeste 21 Oeste 0 -- -- 55
2019-04-13 01:00:00 10.1 15 Oeste 24 Oeste 0 -- -- 52
2019-04-13 00:00:00 11 17 Sudoeste 24 Oeste 0 -- -- 50
2019-04-12 23:00:00 11.4 15 Oeste 23 Oeste 0 -- -- 47
2019-04-12 22:00:00 12.5 10 Oeste 21 Oeste 0 -- -- 44
2019-04-12 21:00:00 14.4 9 Oeste 22 Noroeste 0 -- -- 40
2019-04-12 20:00:00 16.8 9 Noroeste 28 Noroeste 0 -- -- 36
2019-04-12 19:00:00 18.7 8 Noroeste 29 Oeste 0 -- -- 32
2019-04-12 18:00:00 20.4 9 Noroeste 28 Noroeste 0 -- -- 29
2019-04-12 17:00:00 21.6 12 Noroeste 30 Oeste 0 -- -- 29
2019-04-12 16:00:00 20.4 12 Noroeste 36 Oeste 0 -- -- 32
2019-04-12 15:00:00 19.9 10 Noroeste 32 Oeste 0 -- -- 35
2019-04-12 14:00:00 18.5 10 Noroeste 32 Norte 0 -- -- 40
2019-04-12 13:00:00 17.3 12 Noroeste 37 Oeste 0 -- -- 44
2019-04-12 12:00:00 15.7 15 Noroeste 34 Noroeste 0 -- -- 48
2019-04-12 11:00:00 14 18 Oeste 38 Oeste 0 -- -- 54
2019-04-12 10:00:00 11.9 19 Oeste 39 Oeste 0 -- -- 60
2019-04-12 09:00:00 9.5 17 Oeste 33 Oeste 0 -- -- 69
2019-04-12 08:00:00 7.7 19 Oeste 31 Oeste 0 -- -- 74
2019-04-12 07:00:00 7.4 14 Oeste 26 Oeste 0 -- -- 74
2019-04-12 06:00:00 7.8 16 Oeste 28 Oeste 0 -- -- 73
2019-04-12 05:00:00 8 18 Oeste 36 Oeste 0 -- -- 72
2019-04-12 04:00:00 8.2 23 Oeste 37 Oeste 0 -- -- 70
2019-04-12 03:00:00 8.6 21 Oeste 35 Oeste 0 -- -- 69
2019-04-12 02:00:00 8.8 19 Oeste 37 Oeste 0 -- -- 68
2019-04-12 01:00:00 9.4 24 Oeste 42 Oeste 0 -- -- 64
2019-04-12 00:00:00 9.7 19 Oeste 33 Oeste 0 -- -- 63
2019-04-11 23:00:00 10.3 20 Oeste 36 Oeste 0 -- -- 66
2019-04-11 22:00:00 11 21 Oeste 38 Oeste 0 -- -- 62
2019-04-11 21:00:00 12.1 17 Noroeste 40 Noroeste 0 -- -- 58
2019-04-11 20:00:00 13.5 20 Noroeste 47 Oeste 0 -- -- 53
2019-04-11 19:00:00 15 19 Noroeste 51 Noroeste 0 -- -- 51
2019-04-11 18:00:00 16.6 15 Noroeste 48 Noroeste 0 -- -- 45
2019-04-11 17:00:00 16.8 18 Noroeste 47 Noroeste 0 -- -- 45
2019-04-11 16:00:00 17.8 18 Noroeste 46 Oeste 0 -- -- 43
2019-04-11 15:00:00 16.5 18 Noroeste 49 Noroeste 0 -- -- 46
2019-04-11 14:00:00 16 13 Noroeste 46 Noroeste 0 -- -- 46
2019-04-11 13:00:00 14.4 15 Noroeste 50 Norte 0 -- -- 49
2019-04-11 12:00:00 13.8 16 Noroeste 42 Noroeste 0 -- -- 51
2019-04-11 11:00:00 13.1 17 Noroeste 45 Oeste 0 -- -- 51
2019-04-11 10:00:00 12 18 Noroeste 40 Noroeste 0 -- -- 58
2019-04-11 09:00:00 9.8 18 Oeste 35 Oeste 0 -- -- 67
2019-04-11 08:00:00 7.8 20 Oeste 34 Oeste 0 -- -- 73
2019-04-11 07:00:00 7.6 19 Oeste 32 Oeste 0 -- -- 73
2019-04-11 06:00:00 8.2 20 Oeste 34 Oeste 0 -- -- 71
2019-04-11 05:00:00 8.4 17 Oeste 33 Oeste 0 -- -- 70
2019-04-11 04:00:00 8.5 18 Oeste 32 Oeste 0 -- -- 69
2019-04-11 03:00:00 9 16 Oeste 33 Oeste 0 -- -- 68
2019-04-11 02:00:00 9.3 17 Oeste 31 Noroeste 0 -- -- 66
2019-04-11 01:00:00 9.9 15 Noroeste 36 Noroeste 0 -- -- 65
2019-04-11 00:00:00 10.8 17 Oeste 39 Oeste 0 -- -- 63
2019-04-10 23:00:00 11.8 18 Oeste 33 Oeste 0 -- -- 58
2019-04-10 22:00:00 12.7 16 Oeste 35 Norte 0 -- -- 52
2019-04-10 21:00:00 13.6 12 Noroeste 35 Noroeste 0 -- -- 50
2019-04-10 20:00:00 15.2 9 Noroeste 31 Norte 0 -- -- 49
2019-04-10 19:00:00 17.6 9 Noroeste 33 Noroeste 0 -- -- 41
2019-04-10 18:00:00 18.6 10 Noroeste 34 Norte 0 -- -- 41
2019-04-10 17:00:00 17.6 8 Noroeste 33 Oeste 0 -- -- 44
2019-04-10 16:00:00 16.7 11 Noroeste 31 Noroeste 0 -- -- 47
2019-04-10 15:00:00 16 9 Noroeste 37 Oeste 0 -- -- 48
2019-04-10 14:00:00 17.5 21 Oeste 41 Oeste 0 -- -- 44
2019-04-10 13:00:00 15.4 14 Noroeste 36 Noroeste 0 -- -- 48
2019-04-10 12:00:00 13.6 12 Noroeste 33 Noroeste 0 -- -- 53
2019-04-10 11:00:00 12.5 15 Oeste 28 Oeste 0 -- -- 58
2019-04-10 10:00:00 11.4 15 Oeste 34 Oeste 0 -- -- 61
2019-04-10 09:00:00 10.7 16 Oeste 26 Oeste 0 -- -- 63
2019-04-10 08:00:00 9.5 17 Oeste 27 Oeste 0 -- -- 66
2019-04-10 07:00:00 8.1 14 Oeste 21 Oeste 0 -- -- 73
2019-04-10 06:00:00 8.2 12 Oeste 20 Oeste 0 -- -- 74
2019-04-10 05:00:00 8.6 10 Oeste 17 Oeste 0 -- -- 74
2019-04-10 04:00:00 8.2 8 Oeste 15 Oeste 0 -- -- 79
2019-04-10 03:00:00 9.2 9 Oeste 23 Oeste 0 -- -- 78
2019-04-10 02:00:00 9.5 14 Oeste 25 Oeste 0 -- -- 80
2019-04-10 01:00:00 10.3 14 Oeste 29 Oeste 0 -- -- 71
2019-04-10 00:00:00 10.9 15 Oeste 34 Oeste 0 -- -- 64
2019-04-09 23:00:00 11.1 16 Oeste 39 Oeste 0 -- -- 60
2019-04-09 22:00:00 11.4 24 Oeste 37 Oeste 0 -- -- 60
2019-04-09 21:00:00 11 20 Oeste 40 Oeste 0 -- -- 61
2019-04-09 20:00:00 12 31 Oeste 55 Oeste 0 -- -- 57
2019-04-09 19:00:00 14.1 25 Oeste 52 Oeste 0 -- -- 50
2019-04-09 18:00:00 15.9 34 Oeste 49 Oeste 0 -- -- 46
2019-04-09 17:00:00 16.9 19 Oeste 39 Oeste 0 -- -- 37
2019-04-09 16:00:00 19.7 12 Noroeste 41 Oeste 0 -- -- 36
2019-04-09 15:00:00 19.1 16 Oeste 40 Oeste 0 -- -- 39
2019-04-09 14:00:00 19 18 Oeste 40 Oeste 0 -- -- 38
2019-04-09 13:00:00 17.3 21 Oeste 42 Oeste 0 -- -- 43
2019-04-09 12:00:00 15.5 25 Oeste 48 Oeste 0 -- -- 48
2019-04-09 11:00:00 14.1 28 Oeste 51 Oeste 0 -- -- 52
2019-04-09 10:00:00 12.7 28 Oeste 48 Oeste 0 -- -- 55
2019-04-09 09:00:00 10.3 24 Oeste 38 Oeste 0 -- -- 67
2019-04-09 08:00:00 9.3 26 Oeste 38 Oeste 0 -- -- 69
2019-04-09 07:00:00 9.8 12 Oeste 26 Oeste 0 -- -- 65
2019-04-09 06:00:00 10 7 Oeste 22 Oeste 0 -- -- 66
2019-04-09 05:00:00 10.7 15 Oeste 30 Oeste 0 -- -- 63
2019-04-09 04:00:00 10.9 19 Sudoeste 34 Sudoeste 0 -- -- 60
2019-04-09 03:00:00 10.7 19 Sudoeste 28 Sudoeste 0 -- -- 62
2019-04-09 02:00:00 11.2 15 Sudoeste 21 Sudoeste 0 -- -- 68
2019-04-09 01:00:00 11.1 12 Oeste 21 Oeste 0 -- -- 74
2019-04-09 00:00:00 10.9 11 Sudoeste 18 Oeste 0 -- -- 77
2019-04-08 23:00:00 12.4 4 Sudoeste 10 Oeste 0 -- -- 70
2019-04-08 22:00:00 13.9 4 Oeste 14 Oeste 0 -- -- 62
2019-04-08 21:00:00 14.7 10 Oeste 22 Oeste 0 -- -- 60
2019-04-08 20:00:00 16 7 Oeste 37 Oeste 0 -- -- 58
2019-04-08 19:00:00 17.8 12 Oeste 23 Oeste 0 -- -- 54
2019-04-08 18:00:00 19.6 4 Norte 27 Oeste 0 -- -- 52
2019-04-08 17:00:00 20 12 Oeste 23 Oeste 0 -- -- 49
2019-04-08 16:00:00 18 3 Norte 20 Norte 0 -- -- 63
2019-04-08 15:00:00 16.4 3 Sudeste 12 Nordeste 0 -- -- 63
2019-04-08 14:00:00 16.7 3 Noroeste 13 Oeste 0 -- -- 66
2019-04-08 13:00:00 14.9 3 Nordeste 9 Nordeste 0.2 -- -- 76
2019-04-08 12:00:00 13 2 Norte 6 Norte 0 -- -- 81
2019-04-08 11:00:00 12.7 2 Este 5 Sudeste 0.2 -- -- 83
2019-04-08 10:00:00 11.1 2 Sudoeste 5 Oeste 0 -- -- 87
2019-04-08 09:00:00 9.3 0 Calma 5 Nordeste 0 -- -- 91
2019-04-08 08:00:00 8.9 3 Nordeste 8 Sudeste 0 -- -- 89
2019-04-08 07:00:00 9 5 Sudeste 13 Sudeste 0.6 -- -- 86
2019-04-08 06:00:00 8.9 9 Sudeste 13 Sudeste 1 -- -- 85
2019-04-08 05:00:00 9.5 6 Sur 17 Sudoeste 0.6 -- -- 79
2019-04-08 04:00:00 9.6 14 Sudoeste 32 Sudoeste 0.2 -- -- 78
2019-04-08 03:00:00 11.6 19 Sudoeste 26 Sudoeste 0 -- -- 59
2019-04-08 02:00:00 11.3 10 Oeste 20 Sudoeste 0 -- -- 55
2019-04-08 01:00:00 11.1 13 Sudoeste 19 Sudoeste 0 -- -- 52
2019-04-08 00:00:00 10.8 12 Sudoeste 16 Sudoeste 0 -- -- 54
2019-04-07 23:00:00 10.6 11 Sudoeste 16 Sudoeste 0 -- -- 53
2019-04-07 22:00:00 11.6 8 Sudoeste 17 Oeste 0 -- -- 47
2019-04-07 21:00:00 12.5 12 Oeste 22 Oeste 0 -- -- 45
2019-04-07 20:00:00 14.5 15 Oeste 34 Oeste 0 -- -- 40
2019-04-07 19:00:00 16.7 13 Noroeste 38 Oeste 0 -- -- 37
2019-04-07 18:00:00 17.8 14 Noroeste 36 Oeste 0 -- -- 38
2019-04-07 17:00:00 17.6 14 Noroeste 36 Oeste 0 -- -- 38
2019-04-07 16:00:00 17.1 16 Noroeste 44 Oeste 0 -- -- 40
2019-04-07 15:00:00 16.7 24 Oeste 42 Oeste 0 -- -- 40
2019-04-07 14:00:00 15.3 15 Noroeste 40 Oeste 0 -- -- 44
2019-04-07 13:00:00 14.1 12 Noroeste 41 Noroeste 0 -- -- 46
2019-04-07 12:00:00 13.2 16 Noroeste 38 Noroeste 0 -- -- 47
2019-04-07 11:00:00 12.3 9 Noroeste 30 Oeste 0 -- -- 55
2019-04-07 10:00:00 9.2 13 Oeste 28 Oeste 0 -- -- 66
2019-04-07 09:00:00 7.5 15 Oeste 24 Oeste 0 -- -- 73
2019-04-07 08:00:00 7.1 8 Oeste 23 Oeste 0 -- -- 75
2019-04-07 07:00:00 7.5 11 Oeste 23 Oeste 0 -- -- 69
2019-04-07 06:00:00 7.5 8 Oeste 18 Oeste 0 -- -- 68
2019-04-07 05:00:00 7.8 11 Oeste 27 Oeste 0 -- -- 68
2019-04-07 04:00:00 8.2 16 Oeste 27 Oeste 0 -- -- 66
2019-04-07 03:00:00 8.5 18 Sudoeste 41 Oeste 0 -- -- 65
2019-04-07 02:00:00 8.7 5 Noroeste 23 Sudoeste 0 -- -- 66
2019-04-07 01:00:00 9.1 11 Oeste 21 Sudoeste 0 -- -- 62
2019-04-07 00:00:00 8.8 14 Sudoeste 26 Oeste 0 -- -- 63
2019-04-06 23:00:00 8.8 19 Oeste 31 Oeste 0 -- -- 65
2019-04-06 22:00:00 9.3 5 Sudoeste 13 Oeste 0 -- -- 63
2019-04-06 21:00:00 9.5 5 Sudoeste 31 Oeste 0 -- -- 60
2019-04-06 20:00:00 10.4 16 Sudoeste 40 Oeste 0 -- -- 61
2019-04-06 19:00:00 11.2 20 Oeste 49 Oeste 0.2 -- -- 56
2019-04-06 18:00:00 15.8 16 Oeste 37 Sudoeste 0 -- -- 36
2019-04-06 17:00:00 14.5 19 Oeste 31 Oeste 0 -- -- 40
2019-04-06 16:00:00 16.7 17 Oeste 45 Sudoeste 0 -- -- 36
2019-04-06 15:00:00 13 18 Oeste 36 Sudoeste 0 -- -- 45
2019-04-06 14:00:00 12.6 21 Oeste 46 Oeste 0 -- -- 45
2019-04-06 13:00:00 14 27 Oeste 45 Oeste 0 -- -- 45
2019-04-06 12:00:00 12.8 22 Oeste 34 Oeste 0 -- -- 44
2019-04-06 11:00:00 11.7 14 Oeste 44 Oeste 0 -- -- 55
2019-04-06 10:00:00 10.3 21 Oeste 41 Oeste 0 -- -- 59
2019-04-06 09:00:00 8.3 10 Oeste 32 Oeste 0 -- -- 68
2019-04-06 08:00:00 6.7 20 Oeste 32 Sudoeste 0 -- -- 69
2019-04-06 07:00:00 6.8 23 Oeste 36 Sudoeste 0 -- -- 71
2019-04-06 06:00:00 6.7 23 Oeste 41 Oeste 0 -- -- 72
2019-04-06 05:00:00 6.7 5 Noroeste 11 Oeste 0 -- -- 78
2019-04-06 04:00:00 6.4 4 Noroeste 17 Norte 0 -- -- 80
2019-04-06 03:00:00 6 4 Oeste 9 Oeste 0.2 -- -- 84
2019-04-06 02:00:00 5.8 3 Oeste 17 Oeste 0 -- -- 86
2019-04-06 01:00:00 6 13 Oeste 25 Sudoeste 0 -- -- 84
2019-04-06 00:00:00 5.4 9 Oeste 33 Sudoeste 0 -- -- 89
2019-04-05 23:00:00 6 22 Sudoeste 46 Oeste 1.6 -- -- 88
2019-04-05 22:00:00 9.2 5 Sudoeste 14 Sudoeste 0.4 -- -- 92
2019-04-05 21:00:00 9.6 2 Oeste 9 Sudoeste 0 -- -- 88
2019-04-05 20:00:00 10.2 4 Este 6 Norte 0 -- -- 85
2019-04-05 19:00:00 11 0 Calma 12 Noroeste 0 -- -- 85
2019-04-05 18:00:00 11.6 3 Noroeste 13 Oeste 0.2 -- -- 83
2019-04-05 17:00:00 11.5 2 Sur 19 Sudoeste 1.2 -- -- 79
2019-04-05 16:00:00 14 10 Sudeste 22 Sudeste 0 -- -- 55
2019-04-05 15:00:00 13.8 19 Este 36 Este 0 -- -- 55
2019-04-05 14:00:00 15.9 10 Este 27 Este 0 -- -- 42
2019-04-05 13:00:00 16.2 11 Nordeste 18 Nordeste 0 -- -- 44
2019-04-05 12:00:00 13.9 9 Este 17 Este 0 -- -- 57
2019-04-05 11:00:00 10.7 9 Nordeste 15 Este 0 -- -- 74
2019-04-05 10:00:00 8.9 2 Noroeste 9 Sudeste 0 -- -- 75
2019-04-05 09:00:00 7.9 8 Este 18 Este 0 -- -- 75
2019-04-05 08:00:00 6.9 8 Nordeste 15 Nordeste 0 -- -- 79
2019-04-05 07:00:00 6.7 5 Nordeste 15 Nordeste 0 -- -- 78
2019-04-05 06:00:00 7.4 6 Nordeste 12 Sudeste 0 -- -- 71
2019-04-05 05:00:00 6.5 3 Este 14 Nordeste 0 -- -- 73
2019-04-05 04:00:00 6.3 6 Nordeste 15 Nordeste 0 -- -- 72
2019-04-05 03:00:00 6.1 2 Sudeste 14 Este 0 -- -- 70
2019-04-05 02:00:00 5.7 4 Sur 10 Sudoeste 0 -- -- 70
2019-04-05 01:00:00 7.2 5 Sudoeste 17 Sur 0 -- -- 65
2019-04-05 00:00:00 8.2 3 Sur 16 Sudeste 0 -- -- 58
2019-04-04 23:00:00 9.1 9 Sudeste 22 Sudeste 0 -- -- 49
2019-04-04 22:00:00 10.2 15 Este 20 Este 0 -- -- 43
2019-04-04 21:00:00 11.2 12 Este 19 Este 0 -- -- 42
2019-04-04 20:00:00 12.8 14 Este 23 Nordeste 0 -- -- 36
2019-04-04 19:00:00 14.5 9 Nordeste 21 Nordeste 0 -- -- 34
2019-04-04 18:00:00 15.8 3 Norte 15 Noroeste 0 -- -- 29
2019-04-04 17:00:00 15.8 4 Este 17 Norte 0 -- -- 34
2019-04-04 16:00:00 15.8 6 Oeste 19 Noroeste 0 -- -- 37
2019-04-04 15:00:00 15.3 8 Oeste 27 Oeste 0 -- -- 38
2019-04-04 14:00:00 14 9 Oeste 26 Oeste 0 -- -- 40
2019-04-04 13:00:00 12.5 8 Noroeste 27 Oeste 0 -- -- 43
2019-04-04 12:00:00 11.1 12 Oeste 29 Oeste 0 -- -- 49
2019-04-04 11:00:00 9.6 7 Noroeste 20 Oeste 0 -- -- 49
2019-04-04 10:00:00 7.3 13 Oeste 21 Oeste 0 -- -- 58
2019-04-04 09:00:00 4.2 10 Sudoeste 15 Sudoeste 0 -- -- 71
2019-04-04 08:00:00 1.5 12 Sudoeste 17 Sudoeste 0 -- -- 81
2019-04-04 07:00:00 1.2 10 Sudoeste 16 Sudoeste 0 -- -- 83
2019-04-04 06:00:00 1.2 9 Sudoeste 13 Sudoeste 0 -- -- 82
2019-04-04 05:00:00 2.8 6 Oeste 13 Oeste 0 -- -- 73
2019-04-04 04:00:00 3.3 8 Sudoeste 14 Sudoeste 0 -- -- 71
2019-04-04 03:00:00 3.5 9 Sudoeste 13 Oeste 0.2 -- -- 75
2019-04-04 02:00:00 4.8 10 Oeste 26 Noroeste 0 -- -- 70
2019-04-04 01:00:00 5.5 13 Oeste 23 Oeste 0 -- -- 72
2019-04-04 00:00:00 5.9 12 Sudoeste 23 Sudoeste 0 -- -- 72
2019-04-03 23:00:00 6.5 14 Sudoeste 24 Oeste 0 -- -- 70
2019-04-03 22:00:00 5.7 15 Oeste 31 Oeste 0 -- -- 78
2019-04-03 21:00:00 6 13 Noroeste 41 Noroeste 0 -- -- 80
2019-04-03 20:00:00 7.3 13 Noroeste 40 Noroeste 0 -- -- 81
2019-04-03 19:00:00 7.3 15 Sudoeste 21 Sudoeste 0 -- -- 87
2019-04-03 18:00:00 7.3 7 Sudoeste 13 Oeste 0.8 -- -- 88
2019-04-03 17:00:00 8.3 5 Noroeste 19 Noroeste 0.6 -- -- 85
2019-04-03 16:00:00 8.8 6 Noroeste 22 Noroeste 0.2 -- -- 78
2019-04-03 15:00:00 10.2 6 Noroeste 26 Noroeste 0 -- -- 72
2019-04-03 14:00:00 12.3 11 Noroeste 27 Noroeste 0 -- -- 66
2019-04-03 13:00:00 12.8 9 Norte 22 Noroeste 0 -- -- 64
2019-04-03 12:00:00 12.9 6 Noroeste 21 Oeste 0 -- -- 66
2019-04-03 11:00:00 11.4 4 Noroeste 14 Oeste 0 -- -- 72
2019-04-03 10:00:00 10.1 8 Oeste 16 Oeste 0 -- -- 77
2019-04-03 09:00:00 8.8 8 Oeste 14 Oeste 0 -- -- 83
2019-04-03 08:00:00 8.5 9 Oeste 15 Oeste 0 -- -- 83
2019-04-03 07:00:00 8 8 Sudoeste 10 Sudoeste 0 -- -- 87
2019-04-03 06:00:00 8.3 8 Oeste 13 Sudoeste 0 -- -- 86
2019-04-03 05:00:00 9.8 9 Sudoeste 13 Sudoeste 0 -- -- 78
2019-04-03 04:00:00 10.5 6 Oeste 10 Oeste 0 -- -- 77
2019-04-03 03:00:00 11.6 4 Noroeste 17 Norte 0 -- -- 77
2019-04-03 02:00:00 12.4 5 Noroeste 19 Sudoeste 0 -- -- 70
2019-04-03 01:00:00 13.2 15 Sudoeste 27 Sur 0 -- -- 66
2019-04-03 00:00:00 13.3 14 Sudoeste 22 Sudoeste 0 -- -- 65
2019-04-02 23:00:00 12.4 14 Sudoeste 27 Sudoeste 0 -- -- 70
2019-04-02 22:00:00 12.8 17 Sudoeste 24 Sudoeste 0 -- -- 68
2019-04-02 21:00:00 13.1 14 Sudoeste 24 Sudoeste 0 -- -- 67
2019-04-02 20:00:00 14.7 17 Sudoeste 26 Sudoeste 0 -- -- 60
2019-04-02 19:00:00 17.3 10 Oeste 21 Norte 0 -- -- 56
2019-04-02 18:00:00 18.8 10 Noroeste 25 Norte 0 -- -- 56
2019-04-02 17:00:00 20.3 5 Noroeste 22 Noroeste 0 -- -- 50
2019-04-02 16:00:00 20.9 6 Noroeste 24 Noroeste 0 -- -- 54
2019-04-02 15:00:00 19.3 5 Norte 26 Norte 0 -- -- 56
2019-04-02 14:00:00 17.9 8 Noroeste 23 Noroeste 0 -- -- 65
2019-04-02 13:00:00 16.4 6 Noroeste 22 Noroeste 0 -- -- 72
2019-04-02 12:00:00 13.8 6 Noroeste 15 Norte 0 -- -- 81
2019-04-02 11:00:00 12.2 3 Norte 9 Norte 0 -- -- 89
2019-04-02 10:00:00 10.9 2 Noroeste 13 Oeste 0 -- -- 90
2019-04-02 09:00:00 9.3 7 Oeste 12 Sudoeste 0 -- -- 93
2019-04-02 08:00:00 8.5 5 Sudoeste 10 Sudoeste 0 -- -- 94
2019-04-02 07:00:00 8.8 8 Sudoeste 12 Oeste 0 -- -- 94
2019-04-02 06:00:00 9.1 8 Sudoeste 13 Sudoeste 0 -- -- 94
2019-04-02 05:00:00 9.3 7 Sudoeste 12 Sudoeste 0 -- -- 94
2019-04-02 04:00:00 9.6 6 Sudoeste 9 Sudoeste 0 -- -- 94
2019-04-02 03:00:00 9.7 5 Sudoeste 8 Sudoeste 0 -- -- 94
2019-04-02 02:00:00 9.9 5 Sudoeste 10 Sudoeste 0 -- -- 93
2019-04-02 01:00:00 11.3 0 Calma 3 Oeste 0 -- -- 88
2019-04-02 00:00:00 11.9 3 Sudoeste -- -- 0 -- -- 88
2019-04-01 23:00:00 12.5 0 Calma 8 Noroeste 0 -- -- 86
2019-04-01 22:00:00 13 3 Oeste 8 Noroeste 0 -- -- 85
2019-04-01 21:00:00 13.5 4 Oeste 7 Noroeste 0 -- -- 82
2019-04-01 20:00:00 14.7 2 Noroeste 8 Noroeste 0 -- -- 78
2019-04-01 19:00:00 15.3 0 Calma 17 Nordeste 0 -- -- 75
2019-04-01 18:00:00 15.8 8 Nordeste 16 Nordeste 0 -- -- 72
2019-04-01 17:00:00 15 10 Nordeste 17 Nordeste 0 -- -- 74
2019-04-01 16:00:00 13.8 6 Nordeste 18 Nordeste 0 -- -- 78
2019-04-01 15:00:00 12.2 12 Nordeste 18 Este 0 -- -- 85
2019-04-01 14:00:00 11.5 6 Nordeste 14 Nordeste 0.2 -- -- 87
2019-04-01 13:00:00 11.2 6 Nordeste 9 Nordeste 0.2 -- -- 90
2019-04-01 12:00:00 10.4 2 Norte 6 Nordeste 0.4 -- -- 91
2019-04-01 11:00:00 9.9 2 Nordeste 4 Nordeste 0.8 -- -- 92
2019-04-01 10:00:00 9.1 0 Calma 3 Sudoeste 0.6 -- -- 92
2019-04-01 09:00:00 8.7 0 Calma 3 Noroeste 1 -- -- 92
2019-04-01 08:00:00 8.8 0 Calma 2 Norte 0.6 -- -- 93
2019-04-01 07:00:00 8.8 0 Calma 4 Oeste 0.4 -- -- 93
2019-04-01 06:00:00 8.8 0 Calma 4 Noroeste 0.2 -- -- 93
2019-04-01 05:00:00 8.8 0 Calma 8 Noroeste 0.4 -- -- 93
2019-04-01 04:00:00 9 0 Calma 5 Nordeste 0.4 -- -- 93
2019-04-01 03:00:00 9 0 Calma 4 Norte 0.2 -- -- 92
2019-04-01 02:00:00 9 0 Calma 3 Sudoeste 0.2 -- -- 93
2019-04-01 01:00:00 9 2 Oeste 3 Norte 0.8 -- -- 93
2019-04-01 00:00:00 9 0 Calma 4 Sudoeste 0.2 -- -- 93
2019-03-31 23:00:00 9 3 Sudoeste 4 Sudoeste 0.6 -- -- 92
2019-03-31 22:00:00 9 0 Calma 6 Oeste 0.8 -- -- 93
2019-03-31 21:00:00 8.9 3 Oeste 6 Oeste 1.4 -- -- 94
2019-03-31 20:00:00 8.8 6 Oeste 12 Sudoeste 2 -- -- 93
2019-03-31 19:00:00 9.7 4 Sudoeste 7 Sudoeste 1.6 -- -- 89
2019-03-31 18:00:00 10.8 0 Calma 4 Norte 0.4 -- -- 81
2019-03-31 17:00:00 11.3 2 Norte 7 Este 0 -- -- 71
2019-03-31 16:00:00 11.5 2 Nordeste 11 Noroeste 0 -- -- 70
2019-03-31 15:00:00 11.2 2 Norte 9 Noroeste 0 -- -- 69
2019-03-31 14:00:00 10.9 3 Norte 5 Norte 0 -- -- 71
2019-03-31 13:00:00 9.9 3 Oeste 6 Oeste 0 -- -- 74
2019-03-31 12:00:00 9.3 3 Norte 9 Norte 0 -- -- 74
2019-03-31 11:00:00 8 2 Oeste 6 Oeste 0 -- -- 80
2019-03-31 10:00:00 6.6 3 Oeste 5 Sudoeste 0 -- -- 82
2019-03-31 09:00:00 5.1 0 Calma 9 Sudoeste 0 -- -- 81
2019-03-31 08:00:00 3.8 7 Sudoeste 12 Sudoeste 0 -- -- 85
2019-03-31 07:00:00 4 6 Sudoeste 8 Oeste 0 -- -- 82
2019-03-31 06:00:00 4.3 5 Sudoeste 8 Sudoeste 0 -- -- 82
2019-03-31 05:00:00 4.4 4 Sudoeste 10 Sudoeste 0 -- -- 81
2019-03-31 03:00:00 6.2 2 Sudoeste 5 Sudoeste 0 -- -- 73
2019-03-31 01:00:00 7.6 4 Sudeste 12 Este 0 -- -- 69
2019-03-31 00:00:00 8.2 4 Nordeste 17 Este 0 -- -- 66
2019-03-30 23:00:00 9 12 Nordeste 17 Nordeste 0 -- -- 64
2019-03-30 22:00:00 11.3 8 Nordeste 24 Sudeste 0 -- -- 58
2019-03-30 21:00:00 12.2 13 Sudeste 20 Sudeste 0 -- -- 51
2019-03-30 20:00:00 13.8 12 Este 23 Este 0 -- -- 43
2019-03-30 19:00:00 15.8 18 Este 29 Nordeste 0 -- -- 39
2019-03-30 18:00:00 17.4 18 Este 30 Nordeste 0 -- -- 34
2019-03-30 17:00:00 18.5 15 Nordeste 34 Nordeste 0 -- -- 31
2019-03-30 16:00:00 18.9 12 Nordeste 27 Nordeste 0 -- -- 31
2019-03-30 15:00:00 18.4 14 Este 29 Nordeste 0 -- -- 31
2019-03-30 14:00:00 18.2 12 Nordeste 25 Nordeste 0 -- -- 36
2019-03-30 13:00:00 16.4 13 Nordeste 26 Nordeste 0 -- -- 35
2019-03-30 12:00:00 16 10 Este 21 Este 0 -- -- 35
2019-03-30 11:00:00 13.3 4 Este 10 Nordeste 0 -- -- 44
2019-03-30 10:00:00 11.3 3 Nordeste 10 Nordeste 0 -- -- 51
2019-03-30 09:00:00 8 6 Sudoeste 10 Sudoeste 0 -- -- 63
2019-03-30 08:00:00 4 6 Sudoeste 12 Sudoeste 0 -- -- 71
2019-03-30 07:00:00 2.1 9 Sudoeste 13 Sudoeste 0 -- -- 76
2019-03-30 06:00:00 1.9 6 Sudoeste 10 Sudoeste 0 -- -- 76
2019-03-30 05:00:00 2.9 5 Sudoeste 8 Sudoeste 0 -- -- 71
2019-03-30 04:00:00 4.1 4 Sudoeste 8 Sudoeste 0 -- -- 66
2019-03-30 03:00:00 5.8 5 Sudoeste 16 Este 0 -- -- 60
2019-03-30 02:00:00 7.3 7 Este 23 Sudeste 0 -- -- 52
2019-03-30 01:00:00 8.1 19 Sudeste 25 Sudeste 0 -- -- 50
2019-03-30 00:00:00 8.2 13 Sudeste 21 Sudeste 0 -- -- 52
2019-03-29 23:00:00 9.6 13 Sudeste 22 Sudeste 0 -- -- 51
2019-03-29 22:00:00 10.8 14 Sudeste 23 Sudeste 0 -- -- 49
2019-03-29 21:00:00 12.2 13 Sudeste 27 Sudeste 0 -- -- 46
2019-03-29 20:00:00 14.1 21 Sudeste 36 Sudeste 0 -- -- 44
2019-03-29 19:00:00 16.2 27 Sudeste 37 Este 0 -- -- 39
2019-03-29 18:00:00 17.6 29 Este 49 Este 0 -- -- 38
2019-03-29 17:00:00 19.6 24 Sudeste 35 Sudeste 0 -- -- 34
2019-03-29 16:00:00 20.2 13 Sudeste 47 Nordeste 0 -- -- 29
2019-03-29 15:00:00 19.4 22 Nordeste 41 Este 0 -- -- 34
2019-03-29 14:00:00 18.6 23 Este 38 Nordeste 0 -- -- 31
2019-03-29 13:00:00 18 19 Este 34 Nordeste 0 -- -- 31
2019-03-29 12:00:00 15.9 13 Nordeste 20 Nordeste 0 -- -- 38
2019-03-29 11:00:00 13.8 9 Nordeste 17 Nordeste 0 -- -- 45
2019-03-29 10:00:00 11.6 8 Nordeste 12 Nordeste 0 -- -- 50
2019-03-29 09:00:00 9.5 2 Sudeste 13 Oeste 0 -- -- 55
2019-03-29 08:00:00 5.2 7 Sudoeste 15 Sudoeste 0 -- -- 65
2019-03-29 07:00:00 3.6 9 Sudoeste 13 Sudoeste 0 -- -- 70
2019-03-29 06:00:00 3.9 7 Sudoeste 12 Oeste 0 -- -- 68
2019-03-29 05:00:00 4.7 8 Sudoeste 15 Oeste 0 -- -- 66
2019-03-29 04:00:00 5.3 10 Oeste 17 Oeste 0 -- -- 64
2019-03-29 03:00:00 5.7 12 Oeste 15 Oeste 0 -- -- 61
2019-03-29 02:00:00 6.2 10 Oeste 14 Oeste 0 -- -- 59
2019-03-29 01:00:00 7.2 5 Sudoeste 9 Sudoeste 0 -- -- 56
2019-03-29 00:00:00 8.7 0 Calma 8 Oeste 0 -- -- 52
2019-03-28 23:00:00 9.6 9 Oeste 15 Oeste 0 -- -- 51
2019-03-28 22:00:00 11.8 4 Oeste 14 Sudeste 0 -- -- 45
2019-03-28 21:00:00 13.9 8 Sudeste 13 Este 0 -- -- 41
2019-03-28 20:00:00 15.8 9 Este 10 Este 0 -- -- 38
2019-03-28 19:00:00 17.6 4 Nordeste 10 Nordeste 0 -- -- 34
2019-03-28 18:00:00 19.7 3 Norte 12 Oeste 0 -- -- 30
2019-03-28 17:00:00 20 4 Norte 14 Norte 0 -- -- 30
2019-03-28 16:00:00 20 4 Nordeste 17 Nordeste 0 -- -- 31
2019-03-28 15:00:00 19.8 7 Norte 20 Norte 0 -- -- 33
2019-03-28 14:00:00 19.5 5 Nordeste 18 Noroeste 0 -- -- 33
2019-03-28 13:00:00 18.6 7 Noroeste 20 Norte 0 -- -- 37
2019-03-28 12:00:00 17.2 8 Noroeste 26 Oeste 0 -- -- 38
2019-03-28 11:00:00 15.6 7 Noroeste 23 Noroeste 0 -- -- 43
2019-03-28 10:00:00 13.4 8 Noroeste 21 Oeste 0 -- -- 47
2019-03-28 09:00:00 10 8 Sudoeste 16 Oeste 0 -- -- 54
2019-03-28 08:00:00 5.7 9 Sudoeste 15 Sudoeste 0 -- -- 61
2019-03-28 07:00:00 4.6 10 Sudoeste 14 Oeste 0 -- -- 63
2019-03-28 06:00:00 5.1 11 Sudoeste 14 Sudoeste 0 -- -- 61
2019-03-28 05:00:00 5.6 11 Sudoeste 19 Sudoeste 0 -- -- 60
2019-03-28 04:00:00 6.4 13 Sudoeste 16 Sudoeste 0 -- -- 55
2019-03-28 03:00:00 7.1 10 Sudoeste 14 Sudoeste 0 -- -- 50
2019-03-28 02:00:00 7.6 8 Sudoeste 14 Oeste 0 -- -- 47
2019-03-28 01:00:00 8 9 Sudoeste 14 Oeste 0 -- -- 44
2019-03-28 00:00:00 9.5 12 Oeste 17 Sudoeste 0 -- -- 40
2019-03-27 23:00:00 10.7 11 Sudoeste 25 Oeste 0 -- -- 37
2019-03-27 22:00:00 11.5 7 Oeste 16 Noroeste 0 -- -- 34
2019-03-27 21:00:00 12.3 5 Sudoeste 11 Este 0 -- -- 31
2019-03-27 20:00:00 16 6 Este 7 Este 0 -- -- 26
2019-03-27 19:00:00 18 2 Nordeste 8 Noroeste 0 -- -- 23
2019-03-27 18:00:00 19.7 2 Norte 9 Oeste 0 -- -- 22
2019-03-27 17:00:00 21.7 9 Oeste 18 Oeste 0 -- -- 21
2019-03-27 16:00:00 20.8 4 Noroeste 17 Noroeste 0 -- -- 22
2019-03-27 15:00:00 20.8 5 Noroeste 18 Noroeste 0 -- -- 24
2019-03-27 14:00:00 19.7 8 Norte 19 Noroeste 0 -- -- 28
2019-03-27 13:00:00 18.6 8 Noroeste 23 Norte 0 -- -- 32
2019-03-27 12:00:00 16.6 5 Noroeste 18 Noroeste 0 -- -- 41
2019-03-27 11:00:00 14.8 5 Noroeste 20 Norte 0 -- -- 45
2019-03-27 10:00:00 12.5 7 Noroeste 26 Oeste 0 -- -- 50
2019-03-27 09:00:00 10.2 10 Oeste 21 Noroeste 0 -- -- 48
2019-03-27 08:00:00 5.9 9 Sudoeste 17 Sudoeste 0 -- -- 51
2019-03-27 07:00:00 3.9 13 Sudoeste 18 Sudoeste 0 -- -- 56
2019-03-27 06:00:00 4.3 13 Sudoeste 17 Sudoeste 0 -- -- 55
2019-03-27 05:00:00 4.9 12 Sudoeste 17 Sudoeste 0 -- -- 53
2019-03-27 04:00:00 5.7 12 Sudoeste 18 Sudoeste 0 -- -- 50
2019-03-27 03:00:00 6.3 11 Sudoeste 19 Oeste 0 -- -- 48
2019-03-27 02:00:00 7.2 10 Sudoeste 16 Oeste 0 -- -- 45
2019-03-27 01:00:00 8.1 10 Oeste 19 Oeste 0 -- -- 44
2019-03-27 00:00:00 9 11 Sudoeste 17 Sudoeste 0 -- -- 41
2019-03-26 23:00:00 9.5 12 Sudoeste 16 Sudoeste 0 -- -- 40
2019-03-26 22:00:00 11.1 4 Sudoeste 9 Sudoeste 0 -- -- 31
2019-03-26 21:00:00 12.9 6 Oeste 14 Noroeste 0 -- -- 27
2019-03-26 20:00:00 15.3 2 Sudeste 9 Norte 0 -- -- 24
2019-03-26 19:00:00 18.3 3 Noroeste 13 Noroeste 0 -- -- 22
2019-03-26 18:00:00 20.1 2 Norte 14 Noroeste 0 -- -- 22
2019-03-26 17:00:00 20.9 4 Noroeste 14 Oeste 0 -- -- 21
2019-03-26 16:00:00 21 6 Noroeste 20 Norte 0 -- -- 20
2019-03-26 15:00:00 21 6 Noroeste 19 Norte 0 -- -- 24
2019-03-26 14:00:00 19.9 4 Norte 21 Oeste 0 -- -- 26
2019-03-26 13:00:00 18.4 4 Noroeste 20 Noroeste 0 -- -- 33
2019-03-26 12:00:00 16.9 7 Noroeste 21 Norte 0 -- -- 36
2019-03-26 11:00:00 14.8 9 Noroeste 26 Oeste 0 -- -- 39
2019-03-26 10:00:00 12.8 6 Noroeste 24 Oeste 0 -- -- 46
2019-03-26 09:00:00 9.8 12 Oeste 18 Oeste 0 -- -- 55
2019-03-26 08:00:00 6.9 9 Sudoeste 17 Sudoeste 0 -- -- 64
2019-03-26 07:00:00 5.6 11 Sudoeste 17 Sudoeste 0 -- -- 69
2019-03-26 06:00:00 5.9 12 Sudoeste 15 Oeste 0 -- -- 69
2019-03-26 05:00:00 6.7 11 Sudoeste 15 Sudoeste 0 -- -- 67
2019-03-26 04:00:00 6.9 10 Oeste 21 Oeste 0 -- -- 67
2019-03-26 03:00:00 7.2 14 Oeste 25 Oeste 0 -- -- 66
2019-03-26 02:00:00 7.3 15 Oeste 23 Oeste 0 -- -- 64
2019-03-26 01:00:00 7.7 14 Oeste 33 Oeste 0 -- -- 61
2019-03-26 00:00:00 8.7 20 Oeste 34 Noroeste 0 -- -- 57
2019-03-25 23:00:00 9.4 20 Oeste 48 Oeste 0 -- -- 57
2019-03-25 22:00:00 10.2 21 Oeste 35 Oeste 0 -- -- 54
2019-03-25 21:00:00 11.2 16 Oeste 33 Oeste 0 -- -- 49
2019-03-25 20:00:00 12.7 14 Noroeste 36 Oeste 0 -- -- 44
2019-03-25 19:00:00 14.9 14 Noroeste 36 Noroeste 0 -- -- 36
2019-03-25 18:00:00 17.3 10 Noroeste 28 Oeste 0 -- -- 32
2019-03-25 17:00:00 18.8 14 Noroeste 40 Norte 0 -- -- 31
2019-03-25 16:00:00 19.8 12 Noroeste 41 Norte 0 -- -- 30
2019-03-25 15:00:00 20.4 13 Noroeste 40 Norte 0 -- -- 32
2019-03-25 14:00:00 20.3 13 Noroeste 35 Norte 0 -- -- 32
2019-03-25 13:00:00 19.5 11 Noroeste 36 Noroeste 0 -- -- 38
2019-03-25 12:00:00 18.4 13 Noroeste 33 Oeste 0 -- -- 41
2019-03-25 11:00:00 16.7 12 Noroeste 32 Noroeste 0 -- -- 46
2019-03-25 10:00:00 15.3 9 Noroeste 30 Oeste 0 -- -- 50
2019-03-25 09:00:00 13.3 16 Oeste 29 Oeste 0 -- -- 53
2019-03-25 08:00:00 10.2 9 Oeste 15 Oeste 0 -- -- 53
2019-03-25 07:00:00 9.4 10 Sudoeste 16 Sudoeste 0 -- -- 53
2019-03-25 06:00:00 9.7 12 Sudoeste 18 Sudoeste 0 -- -- 52
2019-03-25 05:00:00 10.2 10 Sudoeste 17 Sudoeste 0 -- -- 51
2019-03-25 04:00:00 10.8 12 Sudoeste 18 Sudoeste 0 -- -- 50
2019-03-25 03:00:00 11.6 15 Oeste 26 Oeste 0 -- -- 50
2019-03-25 02:00:00 12.3 16 Oeste 23 Oeste 0 -- -- 51
2019-03-25 01:00:00 12.8 11 Sudoeste 21 Oeste 0 -- -- 47
2019-03-25 00:00:00 13.6 13 Sudoeste 25 Oeste 0 -- -- 39